This is the latest recevied weather packets stored in our database for station/object K5KHP. If no packets are shown the sender has not sent any weather packets the latest 1 day(s).
| Time | Temp. | Humidity | Pressure | Rain* | Wind** | Luminosity | Snow |
|---|---|---|---|---|---|---|---|
| 1778002274 | 18.89° C | 63% | 1014.1 hPa | 0 mm | 0.89 m/s, 247° | 631 W/m² | - |
| 1778001972 | 17.78° C | 65% | 1013.9 hPa | 0 mm | 0 m/s | 636 W/m² | - |
| 1778001668 | 17.78° C | 66% | 1013.8 hPa | 0 mm | 0 m/s | 628 W/m² | - |
| 1778001362 | 17.78° C | 64% | 1013.9 hPa | 0 mm | 0 m/s | 602 W/m² | - |
| 1778001060 | 17.22° C | 67% | 1013.9 hPa | 0 mm | 0 m/s | 583 W/m² | - |
| 1778000756 | 17.78° C | 67% | 1013.8 hPa | 0 mm | 0 m/s | 557 W/m² | - |
| 1778000453 | 17.78° C | 65% | 1013.7 hPa | 0 mm | 0 m/s | 373 W/m² | - |
| 1778000148 | 17.78° C | 65% | 1013.7 hPa | 0 mm | 0 m/s | 640 W/m² | - |
| 1777999844 | 17.22° C | 68% | 1013.8 hPa | 0 mm | 0 m/s | 515 W/m² | - |
| 1777999540 | 17.78° C | 67% | 1013.8 hPa | 0 mm | 0 m/s | 254 W/m² | - |
| 1777999238 | 17.78° C | 68% | 1013.7 hPa | 0 mm | 0 m/s | 505 W/m² | - |
| 1777998931 | 17.78° C | 69% | 1013.8 hPa | 0 mm | 0 m/s | 498 W/m² | - |
| 1777998627 | 17.22° C | 71% | 1013.7 hPa | 0 mm | 0 m/s | 449 W/m² | - |
| 1777998325 | 16.67° C | 73% | 1013.5 hPa | 0 mm | 0 m/s | 475 W/m² | - |
| 1777998017 | 16.67° C | 74% | 1013.6 hPa | 0 mm | 0 m/s | 275 W/m² | - |
| 1777997714 | 16.67° C | 75% | 1013.5 hPa | 0 mm | 0 m/s | 461 W/m² | - |
| 1777997412 | 16.11° C | 76% | 1013.6 hPa | 0 mm | 0 m/s | 408 W/m² | - |
| 1777997110 | 15.56° C | 78% | 1013.5 hPa | 0 mm | 0 m/s | 309 W/m² | - |
| 1777996807 | 15.56° C | 81% | 1013.4 hPa | 0 mm | 0 m/s | 363 W/m² | - |
| 1777996502 | 15° C | 83% | 1013.5 hPa | 0 mm | 0 m/s | 334 W/m² | - |
| 1777996199 | 15° C | 85% | 1013.3 hPa | 0 mm | 0 m/s | 114 W/m² | - |
| 1777995895 | 14.44° C | 85% | 1013.5 hPa | 0 mm | 0 m/s | 131 W/m² | - |
| 1777995591 | 15° C | 84% | 1013.4 hPa | 0 mm | 0 m/s | 98 W/m² | - |
| 1777995289 | 15° C | 84% | 1013.5 hPa | 0 mm | 0.45 m/s, 241° | 116 W/m² | - |
| 1777994985 | 15.56° C | 83% | 1013.1 hPa | 0 mm | 0 m/s | 122 W/m² | - |
* Rain latest hour (hover to see other rain measurements)
** Current wind speed in m/s (hover to see current wind gust speed)